PRIVATE WETTERSTATION BILLIGHEIM-ALLFELD                       ZURCK
Wetterdaten: Donnerstag, 28.04.2022
Datum Zeit Temp. A. Temp. A. min Temp. A. max Feuchte A. Luftdruck Regen Wind Richtung Richtung Sonnenschein ET Solar Taupunkt Windchill Windben Empfang
28.04.2022 00:00 8,9 C 8,9 C 9,6 C 77 % 1024,4 hPa 0,0 l/m 0,0 km/h (0 Bft) N 0 0 min 0,025 mm 0 W/m 5,1 C 8,9 C 0,0 km/h (0 Bft) 97 %
28.04.2022 00:10 8,1 C 8,1 C 8,9 C 80 % 1024,3 hPa 0,0 l/m 0,0 km/h (0 Bft) N 0 0 min 0,000 mm 0 W/m 4,9 C 8,1 C 0,0 km/h (0 Bft) 98 %
28.04.2022 00:20 7,4 C 7,4 C 8,1 C 83 % 1024,3 hPa 0,0 l/m 0,0 km/h (0 Bft) N 0 0 min 0,000 mm 0 W/m 4,7 C 7,4 C 0,0 km/h (0 Bft) 98 %
28.04.2022 00:30 7,1 C 7,1 C 7,4 C 84 % 1024,3 hPa 0,0 l/m 0,0 km/h (0 Bft) N 0 0 min 0,000 mm 0 W/m 4,6 C 7,1 C 0,0 km/h (0 Bft) 97 %
28.04.2022 00:40 6,8 C 6,8 C 7,1 C 85 % 1024,4 hPa 0,0 l/m 0,0 km/h (0 Bft) N 0 0 min 0,000 mm 0 W/m 4,5 C 6,8 C 0,0 km/h (0 Bft) 97 %
28.04.2022 00:50 6,4 C 6,4 C 6,8 C 86 % 1024,6 hPa 0,0 l/m 0,0 km/h (0 Bft) N 0 0 min 0,000 mm 0 W/m 4,2 C 6,4 C 0,0 km/h (0 Bft) 97 %
28.04.2022 01:00 6,1 C 6,1 C 6,4 C 87 % 1024,5 hPa 0,0 l/m 0,0 km/h (0 Bft) N 0 0 min 0,000 mm 0 W/m 4,1 C 6,1 C 0,0 km/h (0 Bft) 98 %
28.04.2022 01:10 5,8 C 5,8 C 6,1 C 88 % 1024,5 hPa 0,0 l/m 0,0 km/h (0 Bft) N 0 0 min 0,000 mm 0 W/m 4,0 C 5,8 C 0,0 km/h (0 Bft) 97 %
28.04.2022 01:20 5,6 C 5,6 C 5,8 C 89 % 1024,6 hPa 0,0 l/m 0,0 km/h (0 Bft) N 0 0 min 0,000 mm 0 W/m 3,9 C 5,6 C 0,0 km/h (0 Bft) 98 %
28.04.2022 01:30 5,3 C 5,3 C 5,6 C 89 % 1024,6 hPa 0,0 l/m 0,0 km/h (0 Bft) N 0 0 min 0,000 mm 0 W/m 3,6 C 5,3 C 0,0 km/h (0 Bft) 97 %
28.04.2022 01:40 5,2 C 5,2 C 5,3 C 90 % 1024,6 hPa 0,0 l/m 0,0 km/h (0 Bft) N 0 0 min 0,000 mm 0 W/m 3,7 C 5,2 C 0,0 km/h (0 Bft) 97 %
28.04.2022 01:50 5,0 C 5,0 C 5,2 C 90 % 1024,7 hPa 0,0 l/m 0,0 km/h (0 Bft) N 0 0 min 0,000 mm 0 W/m 3,5 C 5,0 C 0,0 km/h (0 Bft) 100 %
28.04.2022 02:00 4,8 C 4,8 C 5,0 C 90 % 1024,6 hPa 0,0 l/m 0,0 km/h (0 Bft) N 0 0 min 0,000 mm 0 W/m 3,3 C 4,8 C 0,0 km/h (0 Bft) 99 %
28.04.2022 02:10 4,7 C 4,7 C 4,8 C 90 % 1024,6 hPa 0,0 l/m 0,0 km/h (0 Bft) N 0 0 min 0,000 mm 0 W/m 3,2 C 4,7 C 0,0 km/h (0 Bft) 99 %
28.04.2022 02:20 4,6 C 4,6 C 4,7 C 90 % 1024,6 hPa 0,0 l/m 0,0 km/h (0 Bft) N 0 0 min 0,000 mm 0 W/m 3,1 C 4,6 C 0,0 km/h (0 Bft) 90 %
28.04.2022 02:30 4,5 C 4,5 C 4,6 C 91 % 1024,6 hPa 0,0 l/m 0,0 km/h (0 Bft) N 0 0 min 0,000 mm 0 W/m 3,2 C 4,5 C 0,0 km/h (0 Bft) 100 %
28.04.2022 02:40 4,4 C 4,4 C 4,5 C 91 % 1024,6 hPa 0,0 l/m 0,0 km/h (0 Bft) O-NO 67 0 min 0,000 mm 0 W/m 3,1 C 4,4 C 1,6 km/h (1 Bft) 100 %
28.04.2022 02:50 4,2 C 4,2 C 4,4 C 91 % 1024,6 hPa 0,0 l/m 0,0 km/h (0 Bft) N 0 0 min 0,000 mm 0 W/m 2,9 C 4,2 C 0,0 km/h (0 Bft) 100 %
28.04.2022 03:00 4,1 C 4,1 C 4,2 C 91 % 1024,6 hPa 0,0 l/m 0,0 km/h (0 Bft) N 0 0 min 0,000 mm 0 W/m 2,8 C 4,1 C 0,0 km/h (0 Bft) 100 %
28.04.2022 03:10 3,9 C 3,9 C 4,1 C 91 % 1024,6 hPa 0,0 l/m 0,0 km/h (0 Bft) N 0 0 min 0,000 mm 0 W/m 2,6 C 3,9 C 0,0 km/h (0 Bft) 100 %
28.04.2022 03:20 3,9 C 3,9 C 3,9 C 91 % 1024,8 hPa 0,0 l/m 0,0 km/h (0 Bft) N 0 0 min 0,000 mm 0 W/m 2,6 C 3,9 C 0,0 km/h (0 Bft) 100 %
28.04.2022 03:30 3,8 C 3,8 C 3,9 C 91 % 1024,7 hPa 0,0 l/m 0,0 km/h (0 Bft) N 0 0 min 0,000 mm 0 W/m 2,5 C 3,8 C 0,0 km/h (0 Bft) 100 %
28.04.2022 03:40 3,7 C 3,7 C 3,8 C 91 % 1024,8 hPa 0,0 l/m 0,0 km/h (0 Bft) N 0 0 min 0,000 mm 0 W/m 2,4 C 3,7 C 0,0 km/h (0 Bft) 100 %
28.04.2022 03:50 3,6 C 3,6 C 3,7 C 91 % 1024,9 hPa 0,0 l/m 0,0 km/h (0 Bft) N 0 0 min 0,000 mm 0 W/m 2,3 C 3,6 C 0,0 km/h (0 Bft) 100 %
28.04.2022 04:00 3,5 C 3,5 C 3,6 C 91 % 1024,8 hPa 0,0 l/m 0,0 km/h (0 Bft) N 0 0 min 0,000 mm 0 W/m 2,2 C 3,5 C 0,0 km/h (0 Bft) 100 %
28.04.2022 04:10 3,4 C 3,4 C 3,5 C 91 % 1024,8 hPa 0,0 l/m 0,0 km/h (0 Bft) N 0 0 min 0,000 mm 0 W/m 2,1 C 3,4 C 0,0 km/h (0 Bft) 100 %
28.04.2022 04:20 3,3 C 3,3 C 3,4 C 91 % 1024,8 hPa 0,0 l/m 0,0 km/h (0 Bft) N 0 0 min 0,000 mm 0 W/m 2,0 C 3,3 C 0,0 km/h (0 Bft) 100 %
28.04.2022 04:30 3,3 C 3,3 C 3,3 C 91 % 1024,8 hPa 0,0 l/m 0,0 km/h (0 Bft) N 0 0 min 0,000 mm 0 W/m 2,0 C 3,3 C 0,0 km/h (0 Bft) 100 %
28.04.2022 04:40 3,3 C 3,3 C 3,3 C 91 % 1024,8 hPa 0,0 l/m 0,0 km/h (0 Bft) N 0 0 min 0,000 mm 0 W/m 2,0 C 3,3 C 0,0 km/h (0 Bft) 100 %
28.04.2022 04:50 3,2 C 3,2 C 3,3 C 91 % 1024,9 hPa 0,0 l/m 0,0 km/h (0 Bft) N 0 0 min 0,000 mm 0 W/m 1,9 C 3,2 C 0,0 km/h (0 Bft) 100 %
28.04.2022 05:00 3,1 C 3,1 C 3,2 C 91 % 1024,8 hPa 0,0 l/m 0,0 km/h (0 Bft) N 0 0 min 0,000 mm 0 W/m 1,8 C 3,1 C 0,0 km/h (0 Bft) 100 %
28.04.2022 05:10 3,1 C 3,1 C 3,2 C 91 % 1024,9 hPa 0,0 l/m 0,0 km/h (0 Bft) N 0 0 min 0,000 mm 0 W/m 1,8 C 3,1 C 0,0 km/h (0 Bft) 100 %
28.04.2022 05:20 3,0 C 3,0 C 3,1 C 91 % 1025,0 hPa 0,0 l/m 0,0 km/h (0 Bft) N 0 0 min 0,000 mm 0 W/m 1,7 C 3,0 C 0,0 km/h (0 Bft) 100 %
28.04.2022 05:30 2,9 C 2,9 C 3,0 C 91 % 1025,0 hPa 0,0 l/m 0,0 km/h (0 Bft) N 0 0 min 0,000 mm 0 W/m 1,6 C 2,9 C 0,0 km/h (0 Bft) 100 %
28.04.2022 05:40 2,9 C 2,9 C 2,9 C 91 % 1025,0 hPa 0,0 l/m 0,0 km/h (0 Bft) N 0 0 min 0,000 mm 0 W/m 1,6 C 2,9 C 0,0 km/h (0 Bft) 100 %
28.04.2022 05:50 2,9 C 2,9 C 2,9 C 91 % 1025,1 hPa 0,0 l/m 0,0 km/h (0 Bft) N 0 0 min 0,000 mm 0 W/m 1,6 C 2,9 C 0,0 km/h (0 Bft) 91 %
28.04.2022 06:00 2,8 C 2,8 C 2,9 C 91 % 1025,2 hPa 0,0 l/m 0,0 km/h (0 Bft) N 0 0 min 0,000 mm 0 W/m 1,5 C 2,8 C 0,0 km/h (0 Bft) 100 %
28.04.2022 06:10 2,8 C 2,8 C 2,9 C 91 % 1025,3 hPa 0,0 l/m 0,0 km/h (0 Bft) N 0 0 min 0,000 mm 0 W/m 1,5 C 2,8 C 0,0 km/h (0 Bft) 100 %
28.04.2022 06:20 2,8 C 2,8 C 2,8 C 91 % 1025,3 hPa 0,0 l/m 0,0 km/h (0 Bft) N 0 0 min 0,000 mm 7 W/m 1,5 C 2,8 C 0,0 km/h (0 Bft) 100 %
28.04.2022 06:30 2,7 C 2,7 C 2,8 C 91 % 1025,4 hPa 0,0 l/m 0,0 km/h (0 Bft) N 0 0 min 0,000 mm 12 W/m 1,4 C 2,7 C 0,0 km/h (0 Bft) 100 %
28.04.2022 06:40 2,7 C 2,7 C 2,7 C 91 % 1025,4 hPa 0,0 l/m 0,0 km/h (0 Bft) N-NO 22 0 min 0,000 mm 16 W/m 1,4 C 2,7 C 1,6 km/h (1 Bft) 100 %
28.04.2022 06:50 2,7 C 2,6 C 2,7 C 91 % 1025,6 hPa 0,0 l/m 0,0 km/h (0 Bft) N 0 0 min 0,000 mm 19 W/m 1,4 C 2,7 C 0,0 km/h (0 Bft) 100 %
28.04.2022 07:00 2,9 C 2,7 C 2,9 C 91 % 1025,7 hPa 0,0 l/m 0,0 km/h (0 Bft) N 0 0 min 0,000 mm 23 W/m 1,6 C 2,9 C 0,0 km/h (0 Bft) 99 %
28.04.2022 07:10 3,3 C 2,9 C 3,3 C 91 % 1025,8 hPa 0,0 l/m 0,0 km/h (0 Bft) N 0 0 min 0,000 mm 26 W/m 2,0 C 3,3 C 0,0 km/h (0 Bft) 100 %
28.04.2022 07:20 3,6 C 3,3 C 3,6 C 91 % 1025,9 hPa 0,0 l/m 0,0 km/h (0 Bft) N 0 0 min 0,000 mm 30 W/m 2,3 C 3,6 C 0,0 km/h (0 Bft) 100 %
28.04.2022 07:30 3,8 C 3,6 C 3,8 C 91 % 1026,0 hPa 0,0 l/m 0,0 km/h (0 Bft) N 0 0 min 0,000 mm 32 W/m 2,5 C 3,8 C 0,0 km/h (0 Bft) 100 %
28.04.2022 07:40 3,9 C 3,8 C 3,9 C 91 % 1026,1 hPa 0,0 l/m 0,0 km/h (0 Bft) N 0 0 min 0,000 mm 33 W/m 2,6 C 3,9 C 0,0 km/h (0 Bft) 100 %
28.04.2022 07:50 4,1 C 3,9 C 4,1 C 91 % 1026,2 hPa 0,0 l/m 0,0 km/h (0 Bft) N 0 0 min 0,000 mm 37 W/m 2,8 C 4,1 C 0,0 km/h (0 Bft) 100 %
28.04.2022 08:00 4,4 C 4,1 C 4,4 C 91 % 1026,2 hPa 0,0 l/m 0,0 km/h (0 Bft) N 0 0 min 0,025 mm 46 W/m 3,1 C 4,4 C 0,0 km/h (0 Bft) 100 %
28.04.2022 08:10 5,0 C 4,4 C 5,0 C 91 % 1026,3 hPa 0,0 l/m 0,0 km/h (0 Bft) N 0 0 min 0,000 mm 44 W/m 3,7 C 5,0 C 0,0 km/h (0 Bft) 100 %
28.04.2022 08:20 5,6 C 5,0 C 5,6 C 91 % 1026,4 hPa 0,0 l/m 0,0 km/h (0 Bft) N 0 0 min 0,000 mm 114 W/m 4,2 C 5,6 C 0,0 km/h (0 Bft) 100 %
28.04.2022 08:30 6,4 C 5,6 C 6,4 C 91 % 1026,4 hPa 0,0 l/m 0,0 km/h (0 Bft) N 0 10 min 0,000 mm 322 W/m 5,0 C 6,4 C 0,0 km/h (0 Bft) 100 %
28.04.2022 08:40 7,4 C 6,4 C 7,4 C 91 % 1026,5 hPa 0,0 l/m 0,0 km/h (0 Bft) N 0 10 min 0,000 mm 353 W/m 6,0 C 7,4 C 0,0 km/h (0 Bft) 100 %
28.04.2022 08:50 8,6 C 7,5 C 8,6 C 91 % 1026,5 hPa 0,0 l/m 0,0 km/h (0 Bft) N 0 10 min 0,000 mm 387 W/m 7,2 C 8,6 C 0,0 km/h (0 Bft) 100 %
28.04.2022 09:00 9,8 C 8,6 C 9,8 C 89 % 1026,7 hPa 0,0 l/m 0,0 km/h (0 Bft) N-NO 22 10 min 0,102 mm 422 W/m 8,1 C 9,8 C 1,6 km/h (1 Bft) 98 %
28.04.2022 09:10 10,7 C 9,8 C 10,7 C 85 % 1026,7 hPa 0,0 l/m 0,0 km/h (0 Bft) N 0 10 min 0,000 mm 455 W/m 8,3 C 10,7 C 0,0 km/h (0 Bft) 98 %
28.04.2022 09:20 11,6 C 10,7 C 11,6 C 81 % 1026,7 hPa 0,0 l/m 0,0 km/h (0 Bft) N 0 10 min 0,000 mm 490 W/m 8,5 C 11,6 C 0,0 km/h (0 Bft) 97 %
28.04.2022 09:30 12,1 C 11,6 C 12,1 C 79 % 1026,8 hPa 0,0 l/m 0,0 km/h (0 Bft) N 0 10 min 0,000 mm 524 W/m 8,6 C 12,1 C 0,0 km/h (0 Bft) 98 %
28.04.2022 09:40 12,5 C 12,1 C 12,5 C 78 % 1026,8 hPa 0,0 l/m 0,0 km/h (0 Bft) N 0 10 min 0,000 mm 554 W/m 8,8 C 12,5 C 0,0 km/h (0 Bft) 96 %
28.04.2022 09:50 13,1 C 12,6 C 13,1 C 75 % 1026,8 hPa 0,0 l/m 0,0 km/h (0 Bft) N-NO 22 10 min 0,000 mm 584 W/m 8,8 C 13,1 C 4,8 km/h (1 Bft) 98 %
28.04.2022 10:00 13,5 C 13,1 C 13,5 C 75 % 1026,9 hPa 0,0 l/m 0,0 km/h (0 Bft) N 0 10 min 0,254 mm 606 W/m 9,2 C 13,5 C 0,0 km/h (0 Bft) 97 %
28.04.2022 10:10 13,9 C 13,5 C 13,9 C 73 % 1026,9 hPa 0,0 l/m 0,0 km/h (0 Bft) N-NO 22 10 min 0,000 mm 633 W/m 9,1 C 13,9 C 1,6 km/h (1 Bft) 98 %
28.04.2022 10:20 14,3 C 13,9 C 14,3 C 69 % 1027,0 hPa 0,0 l/m 0,0 km/h (0 Bft) N 0 10 min 0,000 mm 654 W/m 8,7 C 14,3 C 0,0 km/h (0 Bft) 98 %
28.04.2022 10:30 14,6 C 14,3 C 14,6 C 70 % 1026,9 hPa 0,0 l/m 0,0 km/h (0 Bft) N-NO 22 10 min 0,000 mm 675 W/m 9,2 C 14,6 C 1,6 km/h (1 Bft) 97 %
28.04.2022 10:40 15,1 C 14,7 C 15,1 C 67 % 1027,1 hPa 0,0 l/m 0,0 km/h (0 Bft) N 0 10 min 0,000 mm 694 W/m 9,0 C 15,1 C 0,0 km/h (0 Bft) 98 %
28.04.2022 10:50 15,5 C 15,1 C 15,5 C 65 % 1027,1 hPa 0,0 l/m 0,0 km/h (0 Bft) NO 45 10 min 0,000 mm 717 W/m 8,9 C 15,5 C 1,6 km/h (1 Bft) 97 %
28.04.2022 11:00 15,8 C 15,5 C 15,8 C 64 % 1026,9 hPa 0,0 l/m 0,0 km/h (0 Bft) N 360 10 min 0,356 mm 740 W/m 9,0 C 15,8 C 8,0 km/h (2 Bft) 97 %
28.04.2022 11:10 16,1 C 15,8 C 16,1 C 59 % 1027,0 hPa 0,0 l/m 0,0 km/h (0 Bft) NO 45 10 min 0,000 mm 754 W/m 8,1 C 16,1 C 8,0 km/h (2 Bft) 97 %
28.04.2022 11:20 16,1 C 16,1 C 16,2 C 54 % 1027,0 hPa 0,0 l/m 0,0 km/h (0 Bft) N-NO 22 10 min 0,000 mm 773 W/m 6,8 C 16,1 C 9,7 km/h (2 Bft) 98 %
28.04.2022 11:30 16,7 C 16,1 C 16,7 C 56 % 1027,0 hPa 0,0 l/m 0,0 km/h (0 Bft) O-SO 112 10 min 0,000 mm 793 W/m 7,9 C 16,7 C 4,8 km/h (1 Bft) 97 %
28.04.2022 11:40 16,8 C 16,7 C 16,9 C 53 % 1027,0 hPa 0,0 l/m 0,0 km/h (0 Bft) N-NO 22 10 min 0,000 mm 812 W/m 7,2 C 16,8 C 8,0 km/h (2 Bft) 97 %
28.04.2022 11:50 16,9 C 16,8 C 16,9 C 49 % 1026,8 hPa 0,0 l/m 0,0 km/h (0 Bft) O 90 10 min 0,000 mm 823 W/m 6,1 C 16,9 C 1,6 km/h (1 Bft) 98 %
28.04.2022 12:10 17,4 C 16,8 C 17,5 C 49 % 1026,8 hPa 0,0 l/m 2,1 km/h (1 Bft) N-NW 334 20 min 0,406 mm 830 W/m 6,6 C 17,4 C 19,3 km/h (3 Bft) 100 %
28.04.2022 12:20 17,2 C 17,2 C 17,5 C 45 % 1026,8 hPa 0,0 l/m 1,5 km/h (1 Bft) O-NO 69 10 min 0,000 mm 854 W/m 5,2 C 17,2 C 14,5 km/h (3 Bft) 100 %
28.04.2022 12:30 17,3 C 17,2 C 17,4 C 47 % 1026,8 hPa 0,0 l/m 0,1 km/h (0 Bft) O-SO 119 10 min 0,000 mm 209 W/m 5,9 C 17,3 C 4,8 km/h (1 Bft) 100 %
28.04.2022 12:40 17,3 C 17,2 C 17,3 C 52 % 1026,8 hPa 0,0 l/m 0,2 km/h (0 Bft) O-NO 65 10 min 0,000 mm 346 W/m 7,3 C 17,3 C 11,3 km/h (2 Bft) 100 %
28.04.2022 12:50 17,6 C 17,3 C 17,6 C 47 % 1026,7 hPa 0,0 l/m 0,1 km/h (0 Bft) O-NO 60 10 min 0,000 mm 849 W/m 6,2 C 17,6 C 4,8 km/h (1 Bft) 100 %
28.04.2022 13:00 17,7 C 17,6 C 17,7 C 48 % 1026,7 hPa 0,0 l/m 0,5 km/h (0 Bft) O-NO 74 10 min 0,432 mm 905 W/m 6,6 C 17,7 C 14,5 km/h (3 Bft) 100 %
28.04.2022 13:10 17,8 C 17,7 C 17,8 C 51 % 1026,7 hPa 0,0 l/m 0,3 km/h (0 Bft) O-SO 110 10 min 0,000 mm 944 W/m 7,5 C 17,8 C 9,7 km/h (2 Bft) 100 %
28.04.2022 13:20 18,2 C 17,8 C 18,2 C 49 % 1026,7 hPa 0,0 l/m 0,8 km/h (0 Bft) O 98 10 min 0,000 mm 875 W/m 7,3 C 18,2 C 17,7 km/h (3 Bft) 100 %
28.04.2022 13:30 18,1 C 18,1 C 18,2 C 46 % 1026,6 hPa 0,0 l/m 0,9 km/h (0 Bft) S-SO 163 10 min 0,000 mm 865 W/m 6,3 C 18,1 C 14,5 km/h (3 Bft) 100 %
28.04.2022 13:40 18,2 C 18,1 C 18,2 C 48 % 1026,6 hPa 0,0 l/m 0,2 km/h (0 Bft) O-NO 65 10 min 0,000 mm 860 W/m 7,0 C 18,2 C 6,4 km/h (2 Bft) 100 %
28.04.2022 13:50 18,2 C 18,2 C 18,3 C 45 % 1026,5 hPa 0,0 l/m 0,2 km/h (0 Bft) W-NW 294 10 min 0,000 mm 842 W/m 6,1 C 18,2 C 8,0 km/h (2 Bft) 100 %
28.04.2022 14:00 18,2 C 18,1 C 18,2 C 52 % 1026,6 hPa 0,0 l/m 0,0 km/h (0 Bft) N 349 10 min 0,000 mm 854 W/m 8,2 C 18,2 C 1,6 km/h (1 Bft) 100 %
28.04.2022 14:10 18,3 C 18,2 C 18,3 C 48 % 1026,3 hPa 0,0 l/m 0,1 km/h (0 Bft) N-NW 341 10 min 0,483 mm 824 W/m 7,1 C 18,3 C 3,2 km/h (1 Bft) 100 %
28.04.2022 14:20 18,4 C 18,3 C 18,4 C 48 % 1026,4 hPa 0,0 l/m 0,1 km/h (0 Bft) N-NW 344 10 min 0,000 mm 838 W/m 7,2 C 18,4 C 3,2 km/h (1 Bft) 100 %
28.04.2022 14:30 18,5 C 18,4 C 18,5 C 48 % 1026,3 hPa 0,0 l/m 0,2 km/h (0 Bft) N 9 10 min 0,000 mm 826 W/m 7,3 C 18,5 C 6,4 km/h (2 Bft) 100 %
28.04.2022 14:40 18,7 C 18,5 C 18,7 C 46 % 1026,3 hPa 0,0 l/m 0,5 km/h (0 Bft) O 88 10 min 0,000 mm 824 W/m 6,8 C 18,7 C 11,3 km/h (2 Bft) 100 %
28.04.2022 14:50 18,9 C 18,7 C 18,9 C 44 % 1026,2 hPa 0,0 l/m 1,1 km/h (1 Bft) N-NO 28 10 min 0,000 mm 802 W/m 6,4 C 18,9 C 17,7 km/h (3 Bft) 100 %
28.04.2022 15:00 18,9 C 18,9 C 19,0 C 43 % 1026,1 hPa 0,0 l/m 0,9 km/h (0 Bft) NO 34 10 min 0,000 mm 793 W/m 6,0 C 18,9 C 14,5 km/h (3 Bft) 100 %
28.04.2022 15:10 18,9 C 18,9 C 19,1 C 44 % 1026,1 hPa 0,0 l/m 1,5 km/h (1 Bft) N 355 10 min 0,457 mm 780 W/m 6,4 C 18,9 C 8,0 km/h (2 Bft) 100 %
28.04.2022 15:20 19,2 C 18,9 C 19,2 C 44 % 1026,0 hPa 0,0 l/m 0,8 km/h (0 Bft) O 98 10 min 0,000 mm 766 W/m 6,7 C 19,2 C 12,9 km/h (3 Bft) 100 %
28.04.2022 15:30 19,1 C 19,1 C 19,2 C 45 % 1025,8 hPa 0,0 l/m 0,2 km/h (0 Bft) N-NW 337 10 min 0,000 mm 744 W/m 6,9 C 19,1 C 4,8 km/h (1 Bft) 100 %
28.04.2022 15:40 19,2 C 19,1 C 19,2 C 47 % 1025,9 hPa 0,0 l/m 0,1 km/h (0 Bft) N-NO 19 10 min 0,000 mm 724 W/m 7,6 C 19,2 C 4,8 km/h (1 Bft) 100 %
28.04.2022 15:50 19,3 C 19,1 C 19,3 C 43 % 1025,8 hPa 0,0 l/m 0,2 km/h (0 Bft) O-NO 65 10 min 0,000 mm 714 W/m 6,4 C 19,3 C 4,8 km/h (1 Bft) 100 %
28.04.2022 16:00 19,5 C 19,3 C 19,5 C 43 % 1025,6 hPa 0,0 l/m 0,3 km/h (0 Bft) N-NW 333 10 min 0,432 mm 694 W/m 6,6 C 19,5 C 6,4 km/h (2 Bft) 100 %
28.04.2022 16:10 19,6 C 19,5 C 19,6 C 42 % 1025,7 hPa 0,0 l/m 0,1 km/h (0 Bft) NO 35 10 min 0,000 mm 668 W/m 6,3 C 19,6 C 6,4 km/h (2 Bft) 100 %
28.04.2022 16:20 19,6 C 19,6 C 19,6 C 45 % 1025,6 hPa 0,0 l/m 0,1 km/h (0 Bft) N-NW 340 10 min 0,000 mm 645 W/m 7,3 C 19,6 C 3,2 km/h (1 Bft) 100 %
28.04.2022 16:30 19,5 C 19,5 C 19,6 C 44 % 1025,6 hPa 0,0 l/m 0,3 km/h (0 Bft) SO 128 10 min 0,000 mm 619 W/m 6,9 C 19,5 C 6,4 km/h (2 Bft) 90 %
28.04.2022 16:40 19,6 C 19,5 C 19,6 C 41 % 1025,6 hPa 0,0 l/m 0,0 km/h (0 Bft) N 5 10 min 0,000 mm 601 W/m 6,0 C 19,6 C 1,6 km/h (1 Bft) 100 %
28.04.2022 16:50 19,6 C 19,5 C 19,7 C 42 % 1025,5 hPa 0,0 l/m 0,0 km/h (0 Bft) O 90 10 min 0,000 mm 578 W/m 6,3 C 19,6 C 1,6 km/h (1 Bft) 100 %
28.04.2022 17:00 19,6 C 19,6 C 19,7 C 41 % 1025,5 hPa 0,0 l/m 0,3 km/h (0 Bft) N-NW 348 10 min 0,355 mm 547 W/m 6,0 C 19,6 C 6,4 km/h (2 Bft) 100 %
28.04.2022 17:10 19,7 C 19,6 C 19,7 C 43 % 1025,5 hPa 0,0 l/m 0,1 km/h (0 Bft) N-NW 344 10 min 0,000 mm 524 W/m 6,8 C 19,7 C 1,6 km/h (1 Bft) 100 %
28.04.2022 17:20 19,5 C 19,5 C 19,7 C 39 % 1025,6 hPa 0,0 l/m 0,7 km/h (0 Bft) N-NO 30 10 min 0,000 mm 499 W/m 5,2 C 19,5 C 11,3 km/h (2 Bft) 100 %
28.04.2022 17:30 19,6 C 19,5 C 19,6 C 42 % 1025,6 hPa 0,0 l/m 0,6 km/h (0 Bft) N 360 10 min 0,000 mm 469 W/m 6,3 C 19,6 C 8,0 km/h (2 Bft) 100 %
28.04.2022 17:40 19,7 C 19,6 C 19,7 C 40 % 1025,5 hPa 0,0 l/m 0,0 km/h (0 Bft) N 355 10 min 0,000 mm 438 W/m 5,7 C 19,7 C 1,6 km/h (1 Bft) 100 %
28.04.2022 17:50 19,8 C 19,6 C 19,8 C 42 % 1025,4 hPa 0,0 l/m 0,5 km/h (0 Bft) N 5 10 min 0,000 mm 413 W/m 6,5 C 19,8 C 4,8 km/h (1 Bft) 100 %
28.04.2022 18:00 19,6 C 19,6 C 19,8 C 43 % 1025,5 hPa 0,0 l/m 0,2 km/h (0 Bft) N 360 10 min 0,280 mm 380 W/m 6,7 C 19,6 C 6,4 km/h (2 Bft) 100 %
28.04.2022 18:10 19,3 C 19,3 C 19,6 C 44 % 1025,4 hPa 0,0 l/m 0,0 km/h (0 Bft) N 360 10 min 0,000 mm 243 W/m 6,7 C 19,3 C 1,6 km/h (1 Bft) 100 %
28.04.2022 18:20 19,0 C 19,0 C 19,3 C 42 % 1025,5 hPa 0,0 l/m 0,0 km/h (0 Bft) N-NO 12 10 min 0,000 mm 313 W/m 5,8 C 19,0 C 1,6 km/h (1 Bft) 100 %
28.04.2022 18:30 19,1 C 18,9 C 19,1 C 41 % 1025,5 hPa 0,0 l/m 0,4 km/h (0 Bft) O 101 10 min 0,000 mm 290 W/m 5,5 C 19,1 C 9,7 km/h (2 Bft) 100 %
28.04.2022 18:40 19,1 C 19,1 C 19,2 C 44 % 1025,4 hPa 0,0 l/m 0,0 km/h (0 Bft) O-SO 107 10 min 0,000 mm 250 W/m 6,6 C 19,1 C 3,2 km/h (1 Bft) 100 %
28.04.2022 18:50 18,8 C 18,8 C 19,1 C 47 % 1025,4 hPa 0,0 l/m 0,0 km/h (0 Bft) O-SO 107 10 min 0,000 mm 218 W/m 7,2 C 18,8 C 0,0 km/h (0 Bft) 100 %
28.04.2022 19:00 18,2 C 18,2 C 18,8 C 46 % 1025,6 hPa 0,0 l/m 0,0 km/h (0 Bft) O 95 0 min 0,152 mm 54 W/m 6,4 C 18,2 C 0,0 km/h (0 Bft) 100 %
28.04.2022 19:10 17,8 C 17,8 C 18,2 C 50 % 1025,6 hPa 0,0 l/m 0,0 km/h (0 Bft) O 95 0 min 0,000 mm 47 W/m 7,2 C 17,8 C 0,0 km/h (0 Bft) 100 %
28.04.2022 19:20 17,4 C 17,4 C 17,8 C 52 % 1025,6 hPa 0,0 l/m 0,0 km/h (0 Bft) O 95 0 min 0,000 mm 42 W/m 7,4 C 17,4 C 0,0 km/h (0 Bft) 100 %
28.04.2022 19:30 17,2 C 17,2 C 17,4 C 53 % 1025,6 hPa 0,0 l/m 0,0 km/h (0 Bft) O 95 0 min 0,000 mm 39 W/m 7,5 C 17,2 C 0,0 km/h (0 Bft) 100 %
28.04.2022 19:40 16,9 C 16,9 C 17,2 C 52 % 1025,7 hPa 0,0 l/m 0,0 km/h (0 Bft) O 95 0 min 0,000 mm 33 W/m 7,0 C 16,9 C 0,0 km/h (0 Bft) 100 %
28.04.2022 19:50 16,6 C 16,6 C 16,9 C 53 % 1025,8 hPa 0,0 l/m 0,0 km/h (0 Bft) O 98 0 min 0,000 mm 28 W/m 7,0 C 16,6 C 3,2 km/h (1 Bft) 100 %
28.04.2022 20:00 16,2 C 16,2 C 16,6 C 49 % 1025,9 hPa 0,0 l/m 0,0 km/h (0 Bft) O 98 0 min 0,026 mm 23 W/m 5,5 C 16,2 C 0,0 km/h (0 Bft) 100 %
28.04.2022 20:10 15,9 C 15,9 C 16,2 C 51 % 1025,9 hPa 0,0 l/m 0,0 km/h (0 Bft) O 98 0 min 0,000 mm 16 W/m 5,8 C 15,9 C 0,0 km/h (0 Bft) 100 %
28.04.2022 20:20 15,6 C 15,6 C 15,9 C 52 % 1025,9 hPa 0,0 l/m 0,0 km/h (0 Bft) O 98 0 min 0,000 mm 7 W/m 5,8 C 15,6 C 0,0 km/h (0 Bft) 100 %
28.04.2022 20:30 15,1 C 15,1 C 15,6 C 54 % 1025,9 hPa 0,0 l/m 0,0 km/h (0 Bft) O 98 0 min 0,000 mm 0 W/m 5,9 C 15,1 C 0,0 km/h (0 Bft) 100 %
28.04.2022 20:40 14,8 C 14,8 C 15,1 C 52 % 1026,0 hPa 0,0 l/m 0,0 km/h (0 Bft) O 98 0 min 0,000 mm 0 W/m 5,0 C 14,8 C 0,0 km/h (0 Bft) 100 %
28.04.2022 20:50 14,5 C 14,5 C 14,8 C 53 % 1026,1 hPa 0,0 l/m 0,0 km/h (0 Bft) O 95 0 min 0,000 mm 0 W/m 5,0 C 14,5 C 0,0 km/h (0 Bft) 100 %
28.04.2022 21:00 14,2 C 14,2 C 14,5 C 53 % 1026,2 hPa 0,0 l/m 0,0 km/h (0 Bft) O 94 0 min 0,025 mm 0 W/m 4,8 C 14,2 C 0,0 km/h (0 Bft) 91 %
28.04.2022 21:10 13,9 C 13,9 C 14,2 C 54 % 1026,2 hPa 0,0 l/m 0,0 km/h (0 Bft) O 90 0 min 0,000 mm 0 W/m 4,7 C 13,9 C 3,2 km/h (1 Bft) 100 %
28.04.2022 21:20 13,8 C 13,8 C 13,9 C 53 % 1026,3 hPa 0,0 l/m 0,0 km/h (0 Bft) N 0 0 min 0,000 mm 0 W/m 4,4 C 13,8 C 0,0 km/h (0 Bft) 100 %
28.04.2022 21:30 13,6 C 13,6 C 13,8 C 54 % 1026,4 hPa 0,0 l/m 0,0 km/h (0 Bft) N 0 0 min 0,000 mm 0 W/m 4,5 C 13,6 C 0,0 km/h (0 Bft) 100 %
28.04.2022 21:40 13,5 C 13,5 C 13,6 C 58 % 1026,6 hPa 0,0 l/m 0,0 km/h (0 Bft) N 0 0 min 0,000 mm 0 W/m 5,4 C 13,5 C 0,0 km/h (0 Bft) 100 %
28.04.2022 21:50 12,8 C 12,8 C 13,5 C 61 % 1026,5 hPa 0,0 l/m 0,0 km/h (0 Bft) N 0 0 min 0,000 mm 0 W/m 5,5 C 12,8 C 0,0 km/h (0 Bft) 100 %
28.04.2022 22:00 12,3 C 12,3 C 12,8 C 64 % 1026,6 hPa 0,0 l/m 0,0 km/h (0 Bft) N 0 0 min 0,025 mm 0 W/m 5,7 C 12,3 C 0,0 km/h (0 Bft) 100 %
28.04.2022 22:10 11,8 C 11,7 C 12,2 C 66 % 1026,8 hPa 0,0 l/m 0,0 km/h (0 Bft) N 0 0 min 0,000 mm 0 W/m 5,7 C 11,8 C 0,0 km/h (0 Bft) 100 %
28.04.2022 22:20 11,2 C 11,2 C 11,7 C 68 % 1026,9 hPa 0,0 l/m 0,0 km/h (0 Bft) O 90 0 min 0,000 mm 0 W/m 5,5 C 11,2 C 1,6 km/h (1 Bft) 100 %
28.04.2022 22:30 10,7 C 10,7 C 11,2 C 70 % 1026,8 hPa 0,0 l/m 0,0 km/h (0 Bft) N 0 0 min 0,000 mm 0 W/m 5,5 C 10,7 C 0,0 km/h (0 Bft) 100 %
28.04.2022 22:40 10,3 C 10,3 C 10,7 C 72 % 1026,8 hPa 0,0 l/m 0,0 km/h (0 Bft) N 0 0 min 0,000 mm 0 W/m 5,5 C 10,3 C 0,0 km/h (0 Bft) 100 %
28.04.2022 22:50 9,9 C 9,9 C 10,3 C 74 % 1026,6 hPa 0,0 l/m 0,0 km/h (0 Bft) N 0 0 min 0,000 mm 0 W/m 5,5 C 9,9 C 0,0 km/h (0 Bft) 100 %
28.04.2022 23:00 9,5 C 9,5 C 9,8 C 76 % 1026,7 hPa 0,0 l/m 0,0 km/h (0 Bft) N 0 0 min 0,025 mm 0 W/m 5,5 C 9,5 C 0,0 km/h (0 Bft) 100 %
28.04.2022 23:10 9,2 C 9,2 C 9,5 C 75 % 1026,5 hPa 0,0 l/m 0,0 km/h (0 Bft) N 0 0 min 0,000 mm 0 W/m 5,0 C 9,2 C 0,0 km/h (0 Bft) 98 %
28.04.2022 23:20 9,3 C 9,2 C 9,3 C 77 % 1026,6 hPa 0,0 l/m 0,0 km/h (0 Bft) O 90 0 min 0,000 mm 0 W/m 5,5 C 9,3 C 3,2 km/h (1 Bft) 98 %
28.04.2022 23:30 9,1 C 9,1 C 9,3 C 78 % 1026,6 hPa 0,0 l/m 0,0 km/h (0 Bft) N 0 0 min 0,000 mm 0 W/m 5,5 C 9,1 C 0,0 km/h (0 Bft) 97 %
28.04.2022 23:40 8,7 C 8,7 C 9,1 C 79 % 1026,8 hPa 0,0 l/m 0,0 km/h (0 Bft) N 0 0 min 0,000 mm 0 W/m 5,3 C 8,7 C 0,0 km/h (0 Bft) 98 %
28.04.2022 23:50 8,3 C 8,3 C 8,7 C 81 % 1026,8 hPa 0,0 l/m 0,0 km/h (0 Bft) N 0 0 min 0,000 mm 0 W/m 5,2 C 8,3 C 0,0 km/h (0 Bft) 97 %
_ Min-Zeit 06:50 06:50 06:40 17:20 00:10 - 00:00 - - - - - 06:30 06:30 00:00 02:20
Minimum _ 2,6 C 2,6 C 2,7 C 39 % 1024,3 hPa - 0,0 km/h (0 Bft) - - - - - 1,4 C 2,7 C 0,0 km/h (0 Bft) 90 %
_ Max-Zeit 17:50 16:20 17:50 02:30 10:40 00:00 12:10 - - 12:10 14:10 13:10 10:30 17:50 12:10 01:50
Maximum _ 19,8 C 19,6 C 19,8 C 91 % 1027,1 hPa 0,0 l/m 2,1 km/h
N-NW (1 Bft)
- - 20 min 0,483 mm 944 W/m 9,2 C 19,8 C 19,3 km/h
N (3 Bft)
100 %
Durchschnitt _ 11,6 C 11,5 C 11,8 C 68 % 1025,8 hPa #0,0 l/m 0,1 km/h (0 Bft) N-NO - #10:30 h #3,860 mm 473 W/m 5,2 C 11,6 C 2,6 km/h (1 Bft) 99 %
PRIVATE WETTERSTATION BILLIGHEIM-ALLFELD - www.neckar-odenwald-wetter.de - Holger Sonntag